Time;durP1;ratioP1;P1;durP2;ratioP2;P2;SDS_P1;SDS_P2;PMS_P1;PMS_P2;Temp;Humidity;BMP_temperature;BMP_pressure;BME280_temperature;BME280_humidity;BME280_pressure;Samples;Min_cycle;Max_cycle;Signal;HPM_P1;HPM_P2
2022/06/24 00:01:39;;;;;;;0.50;0.50;;;18.90;99.90;;;;;;5067675;28;20597;-86
2022/06/24 00:04:06;;;;;;;1.27;0.70;;;18.90;99.90;;;;;;5067410;28;20622;-85
2022/06/24 00:06:44;;;;;;;0.77;0.77;;;18.90;99.90;;;;;;5067687;28;20621;-84
2022/06/24 00:09:13;;;;;;;0.63;0.63;;;18.90;99.90;;;;;;5068428;28;20716;-84
2022/06/24 00:11:42;;;;;;;1.53;0.87;;;18.90;99.90;;;;;;5067681;28;20982;-85
2022/06/24 00:14:12;;;;;;;0.70;0.70;;;18.90;99.90;;;;;;5070369;28;21197;-85
2022/06/24 00:16:56;;;;;;;0.70;0.70;;;18.90;99.90;;;;;;5071389;28;20696;-84
2022/06/24 00:19:25;;;;;;;0.50;0.30;;;18.90;99.90;;;;;;5071842;28;20648;-84
2022/06/24 00:22:01;;;;;;;0.80;0.80;;;18.90;99.90;;;;;;5071558;28;20664;-84
2022/06/24 00:24:29;;;;;;;0.77;0.40;;;19.00;99.90;;;;;;5071598;28;20723;-84
2022/06/24 00:26:58;;;;;;;0.70;0.53;;;18.90;99.90;;;;;;5070836;28;20617;-84
2022/06/24 00:29:27;;;;;;;0.80;0.63;;;19.00;99.90;;;;;;5071634;28;21023;-85
2022/06/24 00:32:02;;;;;;;0.43;0.43;;;18.90;99.90;;;;;;5071716;28;20620;-84
2022/06/24 00:34:31;;;;;;;0.60;0.60;;;18.90;99.90;;;;;;5071744;28;20716;-84
2022/06/24 00:36:58;;;;;;;0.70;0.70;;;18.90;99.90;;;;;;5071508;28;20708;-84
2022/06/24 00:39:33;;;;;;;1.20;1.07;;;18.90;99.90;;;;;;5062701;28;20739;-83
2022/06/24 00:42:05;;;;;;;0.50;0.43;;;18.90;99.90;;;;;;5051060;28;20995;-84
2022/06/24 00:44:44;;;;;;;0.50;0.50;;;18.90;99.90;;;;;;5051442;28;20610;-84
2022/06/24 00:47:15;;;;;;;0.97;0.60;;;18.90;99.90;;;;;;5051366;28;21247;-84
2022/06/24 00:49:44;;;;;;;2.33;0.60;;;18.90;99.90;;;;;;5051049;28;20606;-83
2022/06/24 00:52:12;;;;;;;1.10;1.00;;;18.80;99.90;;;;;;5051140;28;21247;-84
2022/06/24 00:54:44;;;;;;;1.53;1.10;;;18.80;99.90;;;;;;5051016;28;20610;-84
2022/06/24 00:57:13;;;;;;;0.87;0.77;;;18.80;99.90;;;;;;5051227;28;21027;-84
2022/06/24 00:59:40;;;;;;;1.20;1.13;;;18.80;99.90;;;;;;5051013;28;21263;-85
2022/06/24 01:02:08;;;;;;;0.60;0.60;;;18.90;99.90;;;;;;5050608;28;20638;-84
2022/06/24 01:04:35;;;;;;;0.87;0.70;;;18.90;99.90;;;;;;5049886;28;20653;-85
2022/06/24 01:07:03;;;;;;;1.70;1.60;;;18.80;99.90;;;;;;5050155;28;20696;-83
2022/06/24 01:09:30;;;;;;;1.77;1.00;;;18.70;99.90;;;;;;5051073;28;20602;-84
2022/06/24 01:11:57;;;;;;;1.43;1.27;;;18.70;99.90;;;;;;5050981;28;21219;-85
2022/06/24 01:14:26;;;;;;;0.90;0.90;;;18.80;99.90;;;;;;5051421;28;20704;-85
2022/06/24 01:16:52;;;;;;;1.37;0.97;;;18.80;99.90;;;;;;5050132;28;20603;-83
2022/06/24 01:19:20;;;;;;;0.90;0.80;;;18.70;99.90;;;;;;5050645;28;20667;-85
2022/06/24 01:21:51;;;;;;;0.83;0.80;;;18.70;99.90;;;;;;5050343;28;20610;-85
2022/06/24 01:24:21;;;;;;;1.43;1.23;;;18.70;99.90;;;;;;5050010;28;20618;-85
2022/06/24 01:26:51;;;;;;;0.70;0.70;;;18.70;99.90;;;;;;5049610;28;20636;-85
2022/06/24 01:29:18;;;;;;;1.30;1.10;;;18.70;99.90;;;;;;5050992;28;20598;-84
2022/06/24 01:31:48;;;;;;;1.33;1.00;;;18.70;99.90;;;;;;5050332;28;20614;-84
2022/06/24 01:34:17;;;;;;;1.40;1.30;;;18.60;99.90;;;;;;5043243;28;20602;-84
2022/06/24 01:36:45;;;;;;;1.20;1.10;;;18.70;99.90;;;;;;5049959;28;20632;-85
2022/06/24 01:39:13;;;;;;;0.50;0.50;;;18.60;99.90;;;;;;5050096;28;20650;-84
2022/06/24 01:41:41;;;;;;;1.27;1.07;;;18.60;99.90;;;;;;5050105;28;20614;-85
2022/06/24 01:44:09;;;;;;;3.07;1.10;;;18.60;99.90;;;;;;5050378;28;20722;-84
2022/06/24 01:46:38;;;;;;;1.67;1.07;;;18.60;99.90;;;;;;5050316;28;20606;-85
2022/06/24 01:49:05;;;;;;;0.97;0.83;;;18.60;99.90;;;;;;5050390;28;20602;-85
2022/06/24 01:51:34;;;;;;;0.60;0.53;;;18.70;99.90;;;;;;5050091;28;20713;-85
2022/06/24 01:54:01;;;;;;;0.77;0.70;;;18.60;99.90;;;;;;5050242;28;20602;-85
2022/06/24 01:56:30;;;;;;;0.90;0.70;;;18.60;99.90;;;;;;5049832;28;20612;-84
2022/06/24 01:58:57;;;;;;;1.33;1.23;;;18.50;99.90;;;;;;5050207;28;20637;-85
2022/06/24 02:01:24;;;;;;;0.90;0.70;;;18.50;99.90;;;;;;5050049;28;20617;-85
2022/06/24 02:03:51;;;;;;;1.77;1.30;;;18.50;99.90;;;;;;5050029;28;20618;-86
2022/06/24 02:06:18;;;;;;;0.90;0.90;;;18.50;99.90;;;;;;5049816;28;20590;-85
2022/06/24 02:08:46;;;;;;;0.70;0.60;;;18.40;99.90;;;;;;5050345;28;20612;-86
2022/06/24 02:14:01;;;;;;;1.47;1.03;;;18.50;99.90;;;;;;5050213;28;20606;-86
2022/06/24 02:16:28;;;;;;;1.90;1.00;;;18.50;99.90;;;;;;5049802;28;20617;-85
2022/06/24 02:18:56;;;;;;;2.23;0.80;;;18.50;99.90;;;;;;5032725;28;20748;-86
2022/06/24 02:21:24;;;;;;;0.97;0.90;;;18.40;99.90;;;;;;5050283;28;20618;-86
2022/06/24 02:23:51;;;;;;;1.10;1.00;;;18.40;99.90;;;;;;5049723;28;20630;-85
2022/06/24 02:26:19;;;;;;;1.10;0.80;;;18.30;99.90;;;;;;5049483;28;21164;-86
2022/06/24 02:28:46;;;;;;;1.10;0.90;;;18.30;99.90;;;;;;5049765;28;20622;-86
2022/06/24 02:31:14;;;;;;;1.27;1.17;;;18.20;99.90;;;;;;5050009;28;20664;-85
2022/06/24 02:33:41;;;;;;;0.97;0.97;;;18.30;99.90;;;;;;5050035;28;21360;-86
2022/06/24 02:36:08;;;;;;;1.33;1.07;;;18.30;99.90;;;;;;5048382;28;20633;-86
2022/06/24 02:38:36;;;;;;;4.93;1.33;;;18.30;99.90;;;;;;5049059;28;21322;-87
2022/06/24 02:41:04;;;;;;;0.93;0.87;;;18.20;99.90;;;;;;5049166;28;20713;-86
2022/06/24 02:43:32;;;;;;;2.00;1.13;;;18.10;99.90;;;;;;5049214;28;20653;-86
2022/06/24 02:46:01;;;;;;;1.33;1.23;;;18.20;99.90;;;;;;5048729;28;20717;-86
2022/06/24 02:48:31;;;;;;;2.13;1.20;;;18.20;99.90;;;;;;5049034;28;20642;-86
2022/06/24 02:50:59;;;;;;;5.73;1.40;;;18.10;99.90;;;;;;5049058;28;20621;-87
2022/06/24 02:53:27;;;;;;;0.80;0.53;;;18.00;99.90;;;;;;5048875;28;20733;-87
2022/06/24 02:55:55;;;;;;;1.10;1.00;;;17.90;99.90;;;;;;5048855;28;20626;-86
2022/06/24 02:58:23;;;;;;;1.00;0.70;;;17.80;99.90;;;;;;5048679;28;21358;-87
2022/06/24 03:00:50;;;;;;;0.97;0.97;;;17.80;99.90;;;;;;5048952;28;20633;-87
2022/06/24 03:03:19;;;;;;;1.07;0.90;;;17.80;99.90;;;;;;5048408;28;20685;-86
2022/06/24 03:05:48;;;;;;;1.60;1.20;;;17.70;99.90;;;;;;5048607;28;20629;-86
2022/06/24 03:08:17;;;;;;;1.40;0.80;;;17.90;99.90;;;;;;5048757;28;20614;-86
2022/06/24 03:10:44;;;;;;;1.17;1.00;;;17.90;99.90;;;;;;5048880;28;20641;-86
2022/06/24 03:13:12;;;;;;;2.53;1.60;;;17.80;99.90;;;;;;5048957;28;20642;-87
2022/06/24 03:15:39;;;;;;;1.33;1.03;;;17.80;99.90;;;;;;5048616;28;20630;-87
2022/06/24 03:18:07;;;;;;;0.87;0.80;;;17.80;99.90;;;;;;5049049;28;20714;-87
2022/06/24 03:20:34;;;;;;;1.23;1.10;;;17.80;99.90;;;;;;5048483;28;20621;-87
2022/06/24 03:23:02;;;;;;;1.90;0.90;;;17.80;99.90;;;;;;5048068;28;21307;-86
2022/06/24 03:25:29;;;;;;;1.30;1.00;;;17.80;99.90;;;;;;5048516;28;20638;-86
2022/06/24 03:27:56;;;;;;;1.83;1.03;;;17.70;99.90;;;;;;5048359;28;20684;-86
2022/06/24 03:30:23;;;;;;;1.10;1.00;;;17.70;99.90;;;;;;5047937;28;20660;-86
2022/06/24 03:32:50;;;;;;;1.10;0.93;;;17.70;99.90;;;;;;5047989;28;21156;-86
2022/06/24 03:35:17;;;;;;;1.37;1.17;;;17.70;99.90;;;;;;5048324;28;21226;-87
2022/06/24 03:37:44;;;;;;;0.87;0.80;;;17.70;99.90;;;;;;5047958;28;20704;-87
2022/06/24 03:40:13;;;;;;;2.80;1.00;;;17.70;99.90;;;;;;5048003;28;20650;-87
2022/06/24 03:42:40;;;;;;;0.60;0.60;;;17.70;99.90;;;;;;5047904;28;20614;-87
2022/06/24 03:45:07;;;;;;;0.60;0.60;;;17.70;99.90;;;;;;5048529;28;20623;-87
2022/06/24 03:47:34;;;;;;;1.50;1.10;;;17.60;99.90;;;;;;5045787;28;20675;-86
2022/06/24 03:50:01;;;;;;;1.77;1.67;;;17.60;99.90;;;;;;5048306;28;20614;-87
2022/06/24 03:52:28;;;;;;;1.47;1.00;;;17.60;99.90;;;;;;5047717;28;21267;-87
2022/06/24 03:54:55;;;;;;;2.10;1.30;;;17.60;99.90;;;;;;5048006;28;20626;-87
2022/06/24 03:57:23;;;;;;;1.63;1.53;;;17.50;99.90;;;;;;5046592;28;20721;-86
2022/06/24 03:59:50;;;;;;;1.90;1.10;;;17.50;99.90;;;;;;5048047;28;20769;-88
2022/06/24 04:02:18;;;;;;;1.50;1.20;;;17.40;99.90;;;;;;5048209;28;20618;-87
2022/06/24 04:04:45;;;;;;;1.50;1.40;;;17.50;99.90;;;;;;5047692;28;21194;-87
2022/06/24 04:07:12;;;;;;;1.47;1.37;;;17.40;99.90;;;;;;5047814;28;20948;-87
2022/06/24 04:09:39;;;;;;;1.07;0.83;;;17.40;99.90;;;;;;5048083;28;21180;-87
2022/06/24 04:12:06;;;;;;;1.37;0.80;;;17.50;99.90;;;;;;5047760;28;20606;-87
2022/06/24 04:17:19;;;;;;;1.37;1.20;;;17.50;99.90;;;;;;5047671;28;20609;-88
2022/06/24 04:19:46;;;;;;;1.07;1.00;;;17.50;99.90;;;;;;5047610;28;20741;-88
2022/06/24 04:22:13;;;;;;;2.70;1.53;;;17.50;99.90;;;;;;5048122;28;20610;-88
2022/06/24 04:24:39;;;;;;;0.87;0.87;;;17.60;99.90;;;;;;5048028;28;20648;-88
2022/06/24 04:27:08;;;;;;;0.93;0.83;;;17.70;99.90;;;;;;5047924;28;20618;-87
2022/06/24 04:29:36;;;;;;;1.30;1.20;;;17.70;99.90;;;;;;5048600;28;20610;-88
2022/06/24 04:32:04;;;;;;;1.60;1.50;;;17.80;99.90;;;;;;5047824;28;20614;-88
2022/06/24 04:34:30;;;;;;;1.03;0.90;;;17.90;99.90;;;;;;5047545;28;20609;-88
2022/06/24 04:36:57;;;;;;;1.10;1.00;;;17.90;99.90;;;;;;5047513;28;20654;-88
2022/06/24 04:39:24;;;;;;;0.73;0.73;;;17.90;99.90;;;;;;5048116;28;20732;-89
2022/06/24 04:41:51;;;;;;;1.40;0.90;;;18.00;99.90;;;;;;5047592;28;20653;-88
2022/06/24 04:44:18;;;;;;;0.87;0.87;;;18.00;99.90;;;;;;5048428;28;20626;-88
2022/06/24 04:46:46;;;;;;;2.93;2.20;;;18.10;99.90;;;;;;5047859;28;20669;-89
2022/06/24 04:49:13;;;;;;;1.10;1.00;;;18.20;99.90;;;;;;5047874;28;20614;-88
2022/06/24 04:51:40;;;;;;;1.63;1.03;;;18.20;99.90;;;;;;5047332;28;20700;-89
2022/06/24 04:54:07;;;;;;;1.53;1.43;;;18.30;99.90;;;;;;5047988;28;20637;-89
2022/06/24 04:56:34;;;;;;;1.50;1.40;;;18.30;99.90;;;;;;5048259;28;20640;-88
2022/06/24 04:59:01;;;;;;;1.27;1.17;;;18.40;99.90;;;;;;5048351;28;20781;-88
2022/06/24 05:01:29;;;;;;;2.93;1.53;;;18.40;99.90;;;;;;5052476;28;20676;-89
2022/06/24 05:04:00;;;;;;;2.73;2.53;;;18.40;99.90;;;;;;5052736;28;20625;-89
2022/06/24 05:06:27;;;;;;;2.00;1.60;;;18.50;99.90;;;;;;5050422;28;20618;-90
2022/06/24 05:08:54;;;;;;;1.00;0.90;;;18.40;99.90;;;;;;5051132;28;20614;-88
2022/06/24 05:11:21;;;;;;;1.30;1.20;;;18.50;99.90;;;;;;5051328;28;20680;-90
2022/06/24 05:13:48;;;;;;;1.23;1.10;;;18.60;99.90;;;;;;5051620;28;20607;-89
2022/06/24 05:16:14;;;;;;;1.13;0.93;;;18.70;99.90;;;;;;5051646;28;20598;-89
2022/06/24 05:18:41;;;;;;;2.60;1.30;;;18.70;99.90;;;;;;5051452;28;20657;-89
2022/06/24 05:21:10;;;;;;;2.03;1.20;;;18.80;99.90;;;;;;5051865;28;21089;-88
2022/06/24 05:23:37;;;;;;;1.03;0.93;;;18.90;99.90;;;;;;5051736;28;20649;-89
2022/06/24 05:26:06;;;;;;;1.13;1.03;;;19.00;99.90;;;;;;5052460;28;20614;-90
2022/06/24 05:28:35;;;;;;;0.97;0.90;;;19.10;99.90;;;;;;5052271;28;20626;-90
2022/06/24 05:31:02;;;;;;;1.23;1.10;;;19.20;99.90;;;;;;5051671;28;20662;-90
2022/06/24 05:33:30;;;;;;;1.70;1.60;;;19.30;99.90;;;;;;5052031;28;20621;-89
2022/06/24 05:35:58;;;;;;;1.30;1.20;;;19.30;99.90;;;;;;5052235;28;20625;-89
2022/06/24 05:38:27;;;;;;;1.37;1.10;;;19.30;99.90;;;;;;5052189;28;20614;-90
2022/06/24 05:40:54;;;;;;;0.97;0.97;;;19.40;99.90;;;;;;5038658;28;20650;-90
2022/06/24 05:43:21;;;;;;;2.30;1.33;;;19.40;99.90;;;;;;5052411;28;21222;-90
2022/06/24 05:45:49;;;;;;;1.10;1.00;;;19.40;99.90;;;;;;5053396;28;20629;-90
2022/06/24 05:48:16;;;;;;;1.50;1.20;;;19.30;99.90;;;;;;5053484;28;20614;-90
2022/06/24 05:50:43;;;;;;;1.63;1.30;;;19.30;99.90;;;;;;5052966;28;20626;-90
2022/06/24 05:56:00;;;;;;;1.77;1.63;;;19.30;99.90;;;;;;5052384;28;20602;-90
2022/06/24 05:58:27;;;;;;;1.77;1.30;;;19.50;99.90;;;;;;5051922;28;20653;-89
2022/06/24 06:00:55;;;;;;;1.50;1.40;;;19.50;99.90;;;;;;5051984;28;20650;-89
2022/06/24 06:03:22;;;;;;;1.33;1.23;;;19.70;99.90;;;;;;5051422;28;20610;-89
2022/06/24 06:05:49;;;;;;;1.23;1.07;;;19.60;99.90;;;;;;5050301;28;20638;-87
2022/06/24 06:08:17;;;;;;;1.57;1.37;;;19.80;99.90;;;;;;5051547;28;20602;-89
2022/06/24 06:10:44;;;;;;;1.00;0.97;;;19.80;99.90;;;;;;5050714;28;20677;-89
2022/06/24 06:13:13;;;;;;;0.90;0.90;;;19.90;99.90;;;;;;5051294;28;20696;-88
2022/06/24 06:15:42;;;;;;;1.10;1.10;;;19.90;99.90;;;;;;5051080;28;20708;-88
2022/06/24 06:18:09;;;;;;;1.60;1.00;;;19.80;99.90;;;;;;5050449;28;20621;-89
2022/06/24 06:20:36;;;;;;;1.23;1.03;;;19.90;99.90;;;;;;5050360;28;20649;-88
2022/06/24 06:23:04;;;;;;;1.40;1.30;;;19.80;99.90;;;;;;5050020;28;20629;-87
2022/06/24 06:25:31;;;;;;;2.57;1.80;;;20.00;99.90;;;;;;5049717;28;20692;-87
2022/06/24 06:27:58;;;;;;;2.07;1.13;;;20.00;99.90;;;;;;5050305;28;20622;-87
2022/06/24 06:30:26;;;;;;;1.83;1.40;;;20.20;99.90;;;;;;5050610;28;20730;-89
2022/06/24 06:32:53;;;;;;;1.43;1.27;;;20.40;99.90;;;;;;5050212;28;21195;-89
2022/06/24 06:35:20;;;;;;;2.33;1.77;;;20.50;99.90;;;;;;5050140;28;20717;-89
2022/06/24 06:37:47;;;;;;;1.27;1.17;;;20.40;99.90;;;;;;5049908;28;20645;-90
2022/06/24 06:40:15;;;;;;;1.20;1.20;;;20.40;99.90;;;;;;5049834;28;20708;-89
2022/06/24 06:42:42;;;;;;;1.77;1.47;;;20.70;99.90;;;;;;5049452;28;20660;-89
2022/06/24 06:45:10;;;;;;;1.50;1.40;;;20.90;99.90;;;;;;5049007;28;20682;-89
2022/06/24 06:47:38;;;;;;;1.50;1.40;;;21.00;99.90;;;;;;5048587;28;21163;-88
2022/06/24 06:50:07;;;;;;;1.37;1.37;;;21.00;99.90;;;;;;5049525;28;20627;-91
2022/06/24 06:52:34;;;;;;;1.63;1.53;;;20.70;99.90;;;;;;5046614;28;21090;-88
2022/06/24 06:55:02;;;;;;;1.30;1.30;;;20.50;99.90;;;;;;5049313;28;20705;-88
2022/06/24 06:57:29;;;;;;;1.10;1.00;;;20.70;99.90;;;;;;5049137;28;20661;-88
2022/06/24 06:59:55;;;;;;;1.43;1.30;;;21.00;99.90;;;;;;5048962;28;20670;-90
2022/06/24 07:02:25;;;;;;;1.50;1.40;;;21.30;99.90;;;;;;5049320;28;20621;-90
2022/06/24 07:04:54;;;;;;;1.73;1.50;;;21.30;99.90;;;;;;5050216;28;20622;-90
2022/06/24 07:07:23;;;;;;;2.07;1.37;;;21.30;99.90;;;;;;5051184;28;20622;-89
2022/06/24 07:09:51;;;;;;;1.30;1.20;;;21.30;99.90;;;;;;5051102;28;20610;-89
2022/06/24 07:12:18;;;;;;;1.20;1.13;;;21.40;99.90;;;;;;5050527;28;21404;-89
2022/06/24 07:14:45;;;;;;;1.13;1.03;;;21.00;99.90;;;;;;5050969;28;20621;-90
2022/06/24 07:17:12;;;;;;;1.70;1.60;;;21.20;99.90;;;;;;5050884;28;20696;-91
2022/06/24 07:19:39;;;;;;;1.33;1.20;;;21.40;99.90;;;;;;5050066;28;20625;-88
2022/06/24 07:22:07;;;;;;;1.87;1.77;;;21.50;99.90;;;;;;5049538;28;20602;-91
2022/06/24 07:24:34;;;;;;;1.30;1.10;;;21.50;99.90;;;;;;5049159;28;20626;-89
2022/06/24 07:27:03;;;;;;;1.50;1.40;;;21.60;99.90;;;;;;5049440;28;20614;-90
2022/06/24 07:29:33;;;;;;;1.30;1.20;;;21.90;99.80;;;;;;5048657;28;20754;-88
2022/06/24 07:32:00;;;;;;;1.00;0.90;;;22.00;98.40;;;;;;5048828;28;20610;-90
2022/06/24 07:34:27;;;;;;;1.10;1.00;;;21.80;97.60;;;;;;5048921;28;20626;-88
2022/06/24 07:36:54;;;;;;;2.90;1.23;;;21.50;98.50;;;;;;5049038;28;21343;-89
2022/06/24 07:39:22;;;;;;;1.30;1.30;;;21.70;98.60;;;;;;5048978;28;20661;-88
2022/06/24 07:41:50;;;;;;;1.10;1.10;;;21.60;97.20;;;;;;5048362;28;20654;-89
2022/06/24 07:44:17;;;;;;;0.90;0.90;;;21.50;98.00;;;;;;5048462;28;20618;-89
2022/06/24 07:46:43;;;;;;;1.23;0.80;;;21.80;97.70;;;;;;5048727;28;20716;-88
2022/06/24 07:49:10;;;;;;;2.00;1.30;;;22.00;97.70;;;;;;5048050;28;20620;-88
2022/06/24 07:51:37;;;;;;;1.23;1.13;;;22.10;97.90;;;;;;5048566;28;21251;-88
2022/06/24 07:54:05;;;;;;;1.13;1.13;;;22.10;96.70;;;;;;5048421;28;20966;-89
2022/06/24 07:59:21;;;;;;;2.03;1.57;;;22.10;97.50;;;;;;5046907;28;20614;-88
2022/06/24 08:01:48;;;;;;;0.97;0.93;;;22.20;96.40;;;;;;5047324;28;20657;-88
2022/06/24 08:04:16;;;;;;;1.33;1.20;;;22.20;96.90;;;;;;5057234;28;20633;-91
2022/06/24 08:06:46;;;;;;;1.03;1.03;;;22.10;94.70;;;;;;5059765;28;20628;-90
2022/06/24 08:09:14;;;;;;;1.23;1.13;;;22.20;95.10;;;;;;5068771;28;21377;-90
2022/06/24 08:11:42;;;;;;;1.47;1.37;;;22.30;95.00;;;;;;5049497;28;20623;-88
2022/06/24 08:14:10;;;;;;;1.40;1.30;;;22.20;94.00;;;;;;5048391;28;20621;-91
2022/06/24 08:16:41;;;;;;;1.47;1.07;;;22.30;94.70;;;;;;5048142;28;20606;-91
2022/06/24 08:19:12;;;;;;;1.40;1.30;;;22.20;94.70;;;;;;5048747;28;20614;-90
2022/06/24 08:21:40;;;;;;;1.07;1.03;;;22.20;95.50;;;;;;5048825;28;21246;-90
2022/06/24 08:24:10;;;;;;;1.00;1.00;;;22.40;96.70;;;;;;5048210;28;20629;-89
2022/06/24 08:26:38;;;;;;;0.70;0.70;;;22.30;94.90;;;;;;5048389;28;20610;-91
2022/06/24 08:29:13;;;;;;;1.20;1.10;;;22.60;94.80;;;;;;5047981;28;20727;-91
2022/06/24 08:31:43;;;;;;;0.80;0.80;;;23.10;94.80;;;;;;5047937;28;20630;-90
2022/06/24 08:34:15;;;;;;;1.20;1.00;;;23.50;93.90;;;;;;5029335;28;20712;-90
2022/06/24 08:36:42;;;;;;;1.20;1.20;;;;;;;;;;5031446;28;21077;-88
2022/06/24 08:39:12;;;;;;;1.27;1.17;;;23.20;91.20;;;;;;5046382;28;20718;-88
2022/06/24 08:41:41;;;;;;;1.00;1.00;;;23.00;94.50;;;;;;5051646;28;20645;-89
2022/06/24 08:44:13;;;;;;;1.07;1.00;;;22.90;92.20;;;;;;5051501;28;20618;-88
2022/06/24 08:46:40;;;;;;;0.93;0.93;;;22.70;93.90;;;;;;5051813;28;20619;-88
2022/06/24 08:49:07;;;;;;;1.60;1.50;;;22.70;92.90;;;;;;5051669;28;20602;-89
2022/06/24 08:51:35;;;;;;;1.27;1.17;;;22.90;93.80;;;;;;5051491;28;20630;-90
2022/06/24 08:54:04;;;;;;;1.10;1.10;;;23.10;92.40;;;;;;5051553;28;20713;-88
2022/06/24 08:56:31;;;;;;;1.10;1.00;;;23.40;93.60;;;;;;5051372;28;20625;-88
2022/06/24 08:58:59;;;;;;;1.00;1.00;;;23.50;92.90;;;;;;5051515;28;20621;-87
2022/06/24 09:01:27;;;;;;;1.17;1.10;;;23.00;90.90;;;;;;5050694;28;20681;-88
2022/06/24 09:03:54;;;;;;;1.50;1.40;;;23.00;91.60;;;;;;5051245;28;20927;-88
2022/06/24 09:06:21;;;;;;;1.30;1.20;;;23.10;92.40;;;;;;5051506;28;20745;-87
2022/06/24 09:08:50;;;;;;;1.20;1.03;;;23.10;92.30;;;;;;5050837;28;20618;-88
2022/06/24 09:11:18;;;;;;;1.80;1.50;;;22.90;91.00;;;;;;5051271;28;20625;-90
2022/06/24 09:13:55;;;;;;;1.07;1.07;;;23.60;91.10;;;;;;5051033;28;20614;-88
2022/06/24 09:16:27;;;;;;;1.60;1.50;;;23.40;91.90;;;;;;5050994;28;20618;-87
2022/06/24 09:18:55;;;;;;;1.40;1.30;;;23.40;91.30;;;;;;5051105;28;20646;-87
2022/06/24 09:21:24;;;;;;;1.47;1.37;;;23.30;91.50;;;;;;5050290;28;20768;-89
2022/06/24 09:23:52;;;;;;;0.90;0.90;;;23.30;90.60;;;;;;5051006;28;20753;-89
2022/06/24 09:26:30;;;;;;;1.03;0.97;;;23.30;90.80;;;;;;5050260;28;21476;-88
2022/06/24 09:28:57;;;;;;;0.70;0.70;;;23.10;89.90;;;;;;5051033;28;20622;-87
2022/06/24 09:31:27;;;;;;;1.00;1.00;;;23.30;90.00;;;;;;5050610;28;20630;-88
2022/06/24 09:33:55;;;;;;;0.77;0.70;;;23.80;90.50;;;;;;5050601;28;20656;-89
2022/06/24 09:36:26;;;;;;;1.57;1.30;;;24.10;89.50;;;;;;5050976;28;20610;-89
2022/06/24 09:38:59;;;;;;;1.13;1.03;;;24.50;86.40;;;;;;5050463;28;20672;-89
2022/06/24 09:41:27;;;;;;;0.70;0.70;;;24.70;85.50;;;;;;5050152;28;20646;-87
2022/06/24 09:43:57;;;;;;;1.40;1.20;;;24.80;86.60;;;;;;5050665;28;20691;-88
2022/06/24 09:46:25;;;;;;;1.10;1.00;;;25.00;86.00;;;;;;5048819;28;20630;-88
2022/06/24 09:49:04;;;;;;;1.10;1.10;;;24.80;86.40;;;;;;5050205;28;21163;-88
2022/06/24 09:51:31;;;;;;;1.80;1.23;;;24.90;88.60;;;;;;5050013;28;21008;-88
2022/06/24 09:53:59;;;;;;;1.17;1.17;;;25.20;87.90;;;;;;5050500;28;20668;-88
2022/06/24 09:56:28;;;;;;;0.93;0.93;;;25.20;83.40;;;;;;5050374;28;21096;-88
2022/06/24 10:01:42;;;;;;;1.07;0.97;;;25.40;80.00;;;;;;5049791;28;20654;-88
2022/06/24 10:04:14;;;;;;;1.30;1.20;;;25.20;81.00;;;;;;5049106;28;20619;-89
2022/06/24 10:06:44;;;;;;;1.43;1.33;;;25.40;83.10;;;;;;5050076;28;20618;-89
2022/06/24 10:09:12;;;;;;;1.13;1.03;;;25.60;80.80;;;;;;5049922;28;20613;-87
2022/06/24 10:11:42;;;;;;;1.40;1.10;;;25.80;81.10;;;;;;5049819;28;20626;-89
2022/06/24 10:14:09;;;;;;;1.03;1.03;;;26.10;79.60;;;;;;5049203;28;20622;-87
2022/06/24 10:16:37;;;;;;;1.20;1.10;;;26.30;79.70;;;;;;5049094;28;21189;-87
2022/06/24 10:19:05;;;;;;;0.97;0.90;;;26.10;78.00;;;;;;5049449;28;21295;-87
2022/06/24 10:21:34;;;;;;;1.10;1.00;;;25.90;79.70;;;;;;5049295;28;20720;-88
2022/06/24 10:24:10;;;;;;;1.10;1.10;;;25.70;82.00;;;;;;5049498;28;21256;-87
2022/06/24 10:26:41;;;;;;;1.10;1.10;;;25.50;81.10;;;;;;5049675;28;21032;-88
2022/06/24 10:29:21;;;;;;;1.07;1.07;;;25.10;81.50;;;;;;5049456;28;20618;-87
2022/06/24 10:32:02;;;;;;;1.00;1.00;;;24.90;83.00;;;;;;5049032;28;20999;-87
2022/06/24 10:34:35;;;;;;;2.03;1.10;;;25.20;83.00;;;;;;5048604;28;20625;-85
2022/06/24 10:37:28;;;;;;;1.47;0.80;;;25.00;83.20;;;;;;5055227;28;20634;-85
2022/06/24 10:39:56;;;;;;;1.10;1.10;;;25.00;80.00;;;;;;5044694;28;20673;-85
2022/06/24 10:42:24;;;;;;;2.50;1.40;;;25.10;82.00;;;;;;5057298;28;20658;-85
2022/06/24 10:45:00;;;;;;;1.50;1.40;;;25.10;82.90;;;;;;5049247;28;20706;-85
2022/06/24 10:47:29;;;;;;;2.00;1.80;;;25.10;85.40;;;;;;5048891;28;20849;-85
2022/06/24 10:50:09;;;;;;;0.97;0.93;;;25.00;85.80;;;;;;5049165;28;20622;-85
2022/06/24 10:52:41;;;;;;;0.70;0.70;;;24.70;85.10;;;;;;5048298;28;20633;-85
2022/06/24 10:55:32;;;;;;;1.20;1.10;;;24.60;87.80;;;;;;5048658;28;20602;-86
2022/06/24 10:58:01;;;;;;;1.30;1.20;;;24.50;86.10;;;;;;5048637;28;20641;-86
2022/06/24 11:00:42;;;;;;;1.57;1.47;;;24.50;87.30;;;;;;5048738;28;20614;-85
2022/06/24 11:03:13;;;;;;;1.37;1.30;;;24.10;86.90;;;;;;5047839;28;21238;-85
2022/06/24 11:05:45;;;;;;;1.23;1.13;;;23.90;87.20;;;;;;5047486;28;20626;-86
2022/06/24 11:08:15;;;;;;;1.30;1.07;;;23.70;90.00;;;;;;5047817;28;20622;-86
2022/06/24 11:11:09;;;;;;;1.20;1.10;;;23.50;85.70;;;;;;5046897;28;21259;-87
2022/06/24 11:13:39;;;;;;;1.50;1.40;;;23.60;90.00;;;;;;5046226;28;20721;-85
2022/06/24 11:16:16;;;;;;;1.60;1.50;;;23.70;88.10;;;;;;5051613;28;20642;-88
2022/06/24 11:18:56;;;;;;;1.60;1.50;;;23.50;90.80;;;;;;5067340;28;21493;-88
2022/06/24 11:21:36;;;;;;;1.80;1.13;;;23.50;90.00;;;;;;5061002;28;20764;-88
2022/06/24 11:24:08;;;;;;;1.23;1.23;;;23.60;91.70;;;;;;5061233;28;21244;-87
2022/06/24 11:26:40;;;;;;;1.23;1.23;;;23.60;89.80;;;;;;5063849;28;20630;-88
2022/06/24 11:29:12;;;;;;;1.30;1.27;;;23.90;90.60;;;;;;5048159;28;20677;-86
2022/06/24 11:31:48;;;;;;;2.00;1.43;;;24.20;89.00;;;;;;5048744;28;20618;-88
2022/06/24 11:34:30;;;;;;;3.23;1.67;;;24.10;90.00;;;;;;5040883;28;21190;-88
2022/06/24 11:37:10;;;;;;;1.33;1.23;;;24.20;90.50;;;;;;5048150;28;20771;-88
2022/06/24 11:39:55;;;;;;;1.87;1.67;;;24.20;90.50;;;;;;5047894;28;20633;-88
2022/06/24 11:42:23;;;;;;;1.90;1.30;;;24.00;89.70;;;;;;5047992;28;21255;-86
2022/06/24 11:44:52;;;;;;;0.90;0.90;;;23.70;91.10;;;;;;5047909;28;21354;-86
2022/06/24 11:47:31;;;;;;;1.67;1.37;;;23.60;91.60;;;;;;5048200;28;20617;-86
2022/06/24 11:49:58;;;;;;;1.90;1.80;;;23.70;91.70;;;;;;5040205;28;20618;-85
2022/06/24 11:52:24;;;;;;;3.07;1.70;;;23.70;91.60;;;;;;5043132;28;20634;-86
2022/06/24 11:54:56;;;;;;;1.43;1.33;;;23.60;91.80;;;;;;5047753;28;20614;-86
2022/06/24 11:57:25;;;;;;;1.77;1.53;;;23.80;92.30;;;;;;5047302;28;20646;-86
2022/06/24 12:00:11;;;;;;;2.83;1.93;;;23.70;92.00;;;;;;5054699;28;20668;-87
2022/06/24 12:02:44;;;;;;;1.70;1.60;;;23.40;90.80;;;;;;5059634;28;20649;-87
2022/06/24 12:05:11;;;;;;;1.67;1.57;;;24.10;92.10;;;;;;5039172;28;20646;-85
2022/06/24 12:07:38;;;;;;;1.17;1.00;;;24.40;90.40;;;;;;5047006;28;20654;-85
2022/06/24 12:10:07;;;;;;;1.30;1.20;;;24.70;87.90;;;;;;5050172;28;20701;-85
2022/06/24 12:12:34;;;;;;;2.73;1.10;;;25.40;87.30;;;;;;5046594;28;20666;-86
2022/06/24 12:15:08;;;;;;;1.30;1.20;;;26.20;85.20;;;;;;5056386;28;20610;-88
2022/06/24 12:17:58;;;;;;;1.60;1.50;;;26.80;81.10;;;;;;5071773;28;20615;-87
2022/06/24 12:20:29;;;;;;;2.10;1.03;;;27.30;81.10;;;;;;5072787;28;20609;-87
2022/06/24 12:23:21;;;;;;;1.13;1.03;;;27.00;79.90;;;;;;5071650;28;20659;-87
2022/06/24 12:26:08;;;;;;;1.50;1.10;;;26.90;80.60;;;;;;5071436;28;20673;-87
2022/06/24 12:28:57;;;;;;;1.00;1.00;;;26.60;81.50;;;;;;5071569;28;20648;-87
2022/06/24 12:31:38;;;;;;;1.07;1.07;;;26.10;76.40;;;;;;5071682;28;20617;-88
2022/06/24 12:34:07;;;;;;;1.07;0.97;;;26.60;78.00;;;;;;5070919;28;21286;-87
2022/06/24 12:36:41;;;;;;;1.30;1.07;;;26.30;80.40;;;;;;5071247;28;20624;-85
2022/06/24 12:39:18;;;;;;;1.33;1.10;;;26.10;80.50;;;;;;5065802;28;20624;-87
2022/06/24 12:41:48;;;;;;;1.00;1.00;;;25.90;80.30;;;;;;5051504;28;20727;-86
2022/06/24 12:44:16;;;;;;;1.47;0.97;;;25.20;80.60;;;;;;5051971;28;20664;-87
2022/06/24 12:52:36;;;;;;;1.30;1.20;;;23.60;85.40;;;;;;5051613;28;20992;-87
2022/06/24 12:55:06;;;;;;;0.83;0.83;;;23.60;86.80;;;;;;5051139;28;20609;-88
2022/06/24 12:57:35;;;;;;;1.00;1.00;;;23.00;89.20;;;;;;5051657;28;20621;-83
2022/06/24 13:00:07;;;;;;;3.50;1.50;;;22.50;94.40;;;;;;5051941;28;20713;-83
2022/06/24 13:02:35;;;;;;;1.90;1.67;;;22.30;96.90;;;;;;5039482;28;20687;-83
2022/06/24 13:05:02;;;;;;;2.90;1.73;;;22.00;99.00;;;;;;5031384;28;20738;-83
2022/06/24 13:07:30;;;;;;;1.60;1.33;;;22.00;99.90;;;;;;5038036;28;20987;-84
2022/06/24 13:09:57;;;;;;;2.07;1.63;;;21.80;99.90;;;;;;5050997;28;20629;-83
2022/06/24 13:12:24;;;;;;;1.00;1.00;;;21.80;99.90;;;;;;5051951;28;20611;-83
2022/06/24 13:14:52;;;;;;;1.37;1.27;;;21.50;99.90;;;;;;5051559;28;20661;-83
2022/06/24 13:17:23;;;;;;;0.90;0.90;;;21.40;99.90;;;;;;5050863;28;20626;-85
2022/06/24 13:19:50;;;;;;;1.57;1.47;;;21.30;99.90;;;;;;5050447;28;20622;-83